Terminal Aerodrome Forecast
Issued by NWS

Home | Current Version | Previous Version | Graphics & Text | Print | Product List | Glossary On
Versions: 1 2 3 4 5 6 7 8 9 10 11 12 13 14 15 16 17 18 19
000
FTUS43 KTOP 222300
TAFMHK
TAF
KMHK 222328Z 2300/2324 13011KT P6SM SCT120
     FM230800 16013KT P6SM VCSH BKN090
     FM231400 17019G27KT P6SM SCT120=

USA.gov is the U.S. government's official web portal to all federal, state and local government web resources and services.